EmailTwitter


Observations de surface / Europe / LIRF (16242)

Régions: Québec | Canada | États-Unis | Europe | France | UK | Ailleurs
Station
Affichage
Infos & localisation pour LIRF (16242) | Aide pour décoder les METARs

Observations prises le 2019-09-23 à 11H20 UTC (LIRF)

Etat du ciel: ciel variable.

Température: 25.0 Celsius

Point de rosée: 21.0 Celsius

Humidité relative: 78%

Indice Humidex: 33.

Vents: Sud-ouest à 20 km/h ou 11 noeuds.

Pression au niveau moyen de la mer: 101.20 kilopascals.

Visibilité horizontale: 6.21 milles terrestres ou 9.94 kilomètres.

Observation METAR:

LIRF 231120Z 24011KT 9999 FEW012 SCT015 25/21 Q1012 NOSIG=